Ride Results

Sussex Inlet (09-03-2019)
Ride distance: 80.0 km

Outcomes - Sussex Inlet (09-03-2019)
Division No. of Entries Retired / DNE Completed Withdrawn Ineligible V/O Percentage Completed
HW 19 - 14 1 - 4 73.68%
MW 32 - 27 2 - 3 84.38%
LW 17 - 15 1 - 1 88.24%
JN 6 - 5 - - 1 83.33%
Totals 74 - 61 4 - 9 82.43%
Results - Sussex Inlet (09-03-2019)
No. Rider Horse Place Time Leg Speeds Total
Km/Hr
H/R bpm
Heavyweight
54 Andrew Bailey Cedar Ridge Proclaimer 1 6:29:00 13.3, 11.4 12.34 33, 42, 48 (Avg:45)
37 Jolene Cole Baribo 1 6:29:00 13.5, 11.3 12.34 37, 45, 55 (Avg:50)
51 Heidi Wade Love In The Mist 3 (BC) 6:36:00 15.1, 10.0 12.12 40, 45, 54 (Avg:49)
7 Jo Davis Jamal Desert Mist 4 6:50:00 13.8, 10.1 11.71 33, 42, 57 (Avg:49)
48 Charles Gauci Charleville Commanche Red 5 7:10:00 12.8, 9.8 11.16 36, 40, 56 (Avg:48)
69 Brian Swan Arabesque Abdul 6 7:39:00 13.3, 8.6 10.46 34, 47, 55 (Avg:51)
40 Craig Howell Poets Corner Phoenix 7 7:45:00 12.8, 8.6 10.32 39, 49, 57 (Avg:53)
79 Marty Moran Dane 8 7:46:00 12.2, 8.8 10.30 40, 41, 58 (Avg:49)
45 Sue Warren Razorback Flash 9 8:01:00 12.4, 8.3 9.98 32, 44, 52 (Avg:48)
88 Tony Warren Razorback Darcy 9 8:01:00 12.4, 8.3 9.98 35, 39, 56 (Avg:47)
59 Jasmine Zimmerman Trian Moir Jasper 11 8:04:00 11.1, 8.9 9.92 30, 34, 39 (Avg:36)
67 Col Lewis Matta Mia Zena 12 8:21:00 12.3, 7.8 9.58 34, 44, 49 (Avg:46)
60 Stuart Lymbery Garonne Park Frahney 12 8:21:00 10.6, 8.6 9.58 37, 42, 40 (Avg:41)
52 Heather Nagle Aloha Dash 14 8:50:00 10.0, 8.2 9.06 32, 44, 50 (Avg:47)
36 Robert Catlin Avita Heart Rate L2 0:00:00 13.0, 12.4 - 38, 47, 66 (Avg:56)
72 Monique Echentille Follydown Kadin Metabolics L2 0:00:00 14.0, 9.6 - 32, 44, 59 (Avg:51)
66 Gavin Peacock Eclipse Metabolics L2 0:00:00 17.6, 14.9 - 34, 45, 64 (Avg:54)
41 Graeme Burchell Kiowa W/D after vetting L1 0:00:00 - - 30, 38 (Avg:38)
47 Marita Rifai Wee Warra Yasmina Heart Rate L1 0:00:00 12.6 - 46, 58 (Avg:58)
Middleweight
25 York Shepheard Currowan Starlite 1 4:19:00 20.5, 16.9 18.53 37, 45, 59 (Avg:52)
58 Ellen Vine Alzarah 2 (BC) 4:46:00 16.7, 16.7 16.78 34, 43, 45 (Avg:44)
44 Georgia Curry Mountain Breeze Just Annallusion 3 4:56:00 19.6, 13.7 16.22 39, 46, 52 (Avg:49)
56 Ian Curtis Marat MA 4 5:51:00 16.4, 11.7 13.68 48, 42, 54 (Avg:48)
38 Thomas Hermann Wasabi 5 6:17:00 15.0, 11.0 12.73 42, 41, 48 (Avg:44)
77 Naomi McGaffin Kelkette Park Faris 6 6:19:00 13.1, 12.1 12.66 32, 39, 44 (Avg:41)
70 Wendy Riha Vikson 6 6:19:00 13.1, 12.1 12.66 34, 39, 49 (Avg:44)
68 Simon Bain Akifa Farras Ice 8 6:22:00 13.9, 11.4 12.57 34, 44, 50 (Avg:47)
75 Tahlia Franke Al-Marah Grand Imogen 9 6:24:00 12.6, 12.3 12.50 42, 42, 46 (Avg:44)
55 Annette Bailey Bullio Charlotte 10 6:29:00 13.3, 11.4 12.34 27, 36, 42 (Avg:39)
76 Tayla Hadzi Oso Meeka 11 6:36:00 12.6, 11.5 12.12 42, 50, 54 (Avg:52)
73 Sharyn Coulston Razorback Sophia 12 6:40:00 12.4, 11.5 12.00 33, 35, 46 (Avg:40)
10 Kristie Taprell Castlebar Sorcerer 12 6:40:00 12.6, 11.3 12.00 32, 34, 44 (Avg:39)
8 Erica Allan Waugoola Creek Onyx 14 6:50:00 13.8, 10.1 11.71 38, 40, 49 (Avg:44)
57 Jennifer Gilbertson Webbs Creek Cattle Baron 15 6:54:00 12.6, 10.6 11.59 31, 42, 58 (Avg:50)
62 Geraldine Stuart Kolahai Jailahn 16 7:03:00 12.8, 10.1 11.35 32, 46, 56 (Avg:51)
43 Leanne Hickson Entourage Era 17 7:04:00 13.5, 9.7 11.32 31, 36, 53 (Avg:44)
49 Imogen Carrey Charleville Cherokee Charm 18 7:10:00 12.8, 9.8 11.16 40, 40, 49 (Avg:44)
39 Narelle Bush Rowallan Seek 19 7:17:00 11.7, 10.3 10.98 28, 37, 45 (Avg:41)
50 Duncan McLaughlin Splitters Creek Icelandic 20 7:21:00 12.0, 9.9 10.88 54, 43, 46 (Avg:44)
64 Fiona Meller Malu Vale Embers 21 7:38:00 12.2, 9.1 10.48 29, 36, 46 (Avg:41)
78 Bev Turner Coco Chanel 22 7:46:00 12.2, 8.8 10.30 38, 46, 49 (Avg:47)
80 Louise Piddington Trazir Amir Rhazzikh 23 7:56:00 11.0, 9.2 10.08 32, 40, 46 (Avg:43)
42 Jennifer Rogers Shazam 24 8:08:00 13.1, 7.8 9.84 44, 45, 50 (Avg:47)
74 Nicole Whitehead River Oak Platinum 25 8:11:00 10.8, 8.8 9.78 42, 44, 58 (Avg:51)
63 Anne Lymbery Garonne Park Elmo 26 8:21:00 10.6, 8.6 9.58 33, 37, 54 (Avg:45)
53 Leisa Courtman Zimba 27 8:50:00 10.0, 8.2 9.06 36, 43, 55 (Avg:49)
35 Clare Feary Equilo Heart Rate L2 0:00:00 12.4, 13.0 - 34, 44, 62 (Avg:53)
24 Jenny Shepheard Currowan Apollo Lame L2 0:00:00 20.5, 16.9 - 39, 50, 60 (Avg:55)
71 Dean Walkom Tall Timbers Roberto Heart Rate L2 0:00:00 14.0, 9.6 - 38, 36, 67 (Avg:51)
46 John Symons Forest Dale Belle De Jour W/D on track L1 0:00:00 - - 34, 44, 36 (Avg:40)
13 Linda Tanian Castlebar Cougar W/D on track L1 0:00:00 - - 32, 35, 38 (Avg:36)
Lightweight
65 Noni Seagrim Honey Bee 1 4:46:00 16.7, 16.7 16.78 25, 34, 43 (Avg:38)
19 Julie Hooper A'Landell Enigma 2 (BC) 4:52:00 18.7, 14.6 16.44 38, 42, 46 (Avg:44)
32 Roz Edmunds Everon Park Apollo 3 5:10:00 18.7, 13.1 15.48 30, 45, 53 (Avg:49)
20 Vanessa Hamilton Turingal Park Vassili 4 5:11:00 16.7, 14.2 15.43 36, 38, 43 (Avg:40)
23 Fia Hasko-Stewart Blake's Heaven Venus 5 5:51:00 16.4, 11.7 13.68 30, 43, 54 (Avg:48)
22 Celia Hodgson Blake's Heaven Hiraani 6 6:20:00 16.4, 10.2 12.63 30, 39, 37 (Avg:38)
28 Jana Kupper Oso Rioja 7 6:24:00 12.6, 12.3 12.50 36, 43, 55 (Avg:49)
30 Sorsha Stuart-Rokvic Oso Edith 7 6:24:00 12.9, 12.1 12.50 36, 46, 50 (Avg:48)
27 Emma Dimech Oso Solstice Star 9 6:36:00 12.6, 11.5 12.12 38, 44, 50 (Avg:47)
21 Catherine Bailey Razorback Annatole 10 6:40:00 12.4, 11.5 12.00 34, 36, 39 (Avg:37)
17 Allix Jones Shellal Sugar Plum 11 7:21:00 12.1, 9.8 10.88 58, 40, 58 (Avg:49)
18 Patricia Melchior Shellal Kiwi 11 7:21:00 12.1, 9.8 10.88 39, 46, 52 (Avg:49)
26 Catherine McDonald Chelleason Challerisma Gold 13 7:56:00 11.0, 9.2 10.08 34, 39, 44 (Avg:41)
31 Faith Robinson Sassy Grace 14 8:08:00 12.0, 8.3 9.84 31, 47, 49 (Avg:48)
29 Tracy-Lee Feltrin Kelkette Park Lorelle 15 8:11:00 10.8, 8.8 9.78 38, 41, 60 (Avg:50)
16 Vetea Facchini Owata Park Amirah Heart Rate L2 0:00:00 15.1, 11.7 - 39, 44, 62 (Avg:53)
9 Courtney Chapman Temar Mahavee W/D on track L1 0:00:00 - - 31, 40, 48 (Avg:44)
Junior
3 Levi Robinson Karumba Beamish 1 (BC) 4:52:00 18.8, 14.5 16.44 34, 51, 50 (Avg:50)
2 Sophie Ramsay Autumnight Goldmine 2 6:06:00 13.1, 13.0 13.11 36, 36, 51 (Avg:43)
1 Emma Cole Windradyne Flame 3 6:29:00 13.5, 11.3 12.34 34, 34, 55 (Avg:44)
5 Tahnaya Mercieca Wickwood Badira 4 6:35:00 12.3, 11.9 12.15 36, 42, 43 (Avg:42)
4 Kaitlyn Mercieca Coolinda Park Sheeza Doll 4 6:35:00 12.3, 11.9 12.15 29, 37, 42 (Avg:39)
6 Hannah Cossor Ramlea Flash Heart Rate L2 0:00:00 10.8, 7.9 - 50, 55, 70 (Avg:62)